createdAt,value
2022-12-12T08:56:37.917Z,6.93
2022-12-12T09:03:47.804Z,6.63
2022-12-12T09:06:50.276Z,7.32
2022-12-12T09:09:52.725Z,6.65
2022-12-12T09:12:55.414Z,6.57
2022-12-12T09:15:58.189Z,5.80
2022-12-12T09:19:02.023Z,5.95
2022-12-12T09:22:04.791Z,6.10
2022-12-12T09:25:07.762Z,5.25
2022-12-12T09:28:11.536Z,4.85
2022-12-12T09:31:14.281Z,5.53
2022-12-12T09:34:18.093Z,5.40
2022-12-12T09:37:20.701Z,4.97
2022-12-12T09:40:32.192Z,4.47
2022-12-12T09:43:43.033Z,4.90
2022-12-12T09:46:48.621Z,4.43
2022-12-12T09:49:56.907Z,4.57
2022-12-12T09:53:02.356Z,3.60
2022-12-12T09:56:11.426Z,4.40
2022-12-12T09:59:20.117Z,3.15
2022-12-12T10:02:41.026Z,4.22
2022-12-12T10:06:13.394Z,4.20
2022-12-12T10:09:40.569Z,4.20
2022-12-12T10:12:43.285Z,3.65
2022-12-12T10:15:49.155Z,5.15
2022-12-12T10:18:54.290Z,5.25
2022-12-12T10:22:03.163Z,4.55
2022-12-12T10:25:20.031Z,5.20
2022-12-12T10:28:25.056Z,4.32
2022-12-12T10:31:41.299Z,5.47
2022-12-12T10:34:58.376Z,5.00
2022-12-12T10:38:18.177Z,6.28
2022-12-12T10:41:29.003Z,5.07
2022-12-12T10:44:57.752Z,3.38
2022-12-12T10:48:00.220Z,4.47
2022-12-12T10:51:05.354Z,5.28
2022-12-12T10:54:16.653Z,4.10
2022-12-12T10:57:22.336Z,5.28
2022-12-12T11:00:27.509Z,5.10
2022-12-12T11:03:34.217Z,5.35
2022-12-12T11:06:39.336Z,5.30
2022-12-12T11:09:46.495Z,4.78
2022-12-12T11:12:56.233Z,3.47
2022-12-12T11:16:00.880Z,3.78
2022-12-12T11:19:08.125Z,5.95
2022-12-12T11:22:13.730Z,4.20
2022-12-12T11:25:26.611Z,5.93
2022-12-12T11:28:34.370Z,5.72
2022-12-12T11:31:36.889Z,4.22
2022-12-12T11:34:44.853Z,5.03
2022-12-12T11:37:50.474Z,5.55
2022-12-12T11:41:00.405Z,6.13
2022-12-12T11:44:02.847Z,5.80
2022-12-12T11:47:23.100Z,5.25
2022-12-12T11:50:27.644Z,4.22
2022-12-12T11:53:30.945Z,3.55
2022-12-12T11:56:42.301Z,4.22
2022-12-12T12:00:03.616Z,4.22
2022-12-12T12:03:23.460Z,4.60
2022-12-12T12:06:38.782Z,4.43
2022-12-12T12:09:47.183Z,4.43
2022-12-12T12:13:04.066Z,5.65
2022-12-12T12:16:17.195Z,5.82
2022-12-12T12:19:24.631Z,5.53
2022-12-12T12:22:35.747Z,4.55
2022-12-12T12:25:45.070Z,4.20
2022-12-12T12:29:18.933Z,4.13
2022-12-12T12:32:29.403Z,4.15
2022-12-12T12:35:33.491Z,5.03
2022-12-12T12:38:51.244Z,4.78
2022-12-12T12:42:06.847Z,4.70
2022-12-12T12:45:20.028Z,4.30
2022-12-12T12:48:27.941Z,5.13
2022-12-12T12:51:35.898Z,3.80
2022-12-12T12:54:40.433Z,3.95
2022-12-12T12:57:45.801Z,3.53
2022-12-12T13:01:00.680Z,4.15
2022-12-12T13:04:09.300Z,3.95
2022-12-12T13:07:19.142Z,3.30
2022-12-12T13:10:24.376Z,3.17
2022-12-12T13:13:30.565Z,3.47
2022-12-12T13:16:34.657Z,3.80
2022-12-12T13:19:40.680Z,3.10
2022-12-12T13:22:52.745Z,4.15
2022-12-12T13:26:01.931Z,3.08
2022-12-12T13:29:12.125Z,3.78
2022-12-12T13:32:48.432Z,2.78
2022-12-12T13:35:54.612Z,3.15
2022-12-12T13:39:00.241Z,3.55
2022-12-12T13:42:04.394Z,3.78
2022-12-12T13:45:35.323Z,3.47
2022-12-12T13:48:47.303Z,4.20
2022-12-12T13:51:49.846Z,4.63
2022-12-12T13:54:55.363Z,4.07
2022-12-12T13:58:07.977Z,3.97
2022-12-12T14:01:34.474Z,4.22
2022-12-12T14:04:44.679Z,3.83
2022-12-12T14:07:50.606Z,3.35
2022-12-12T14:11:00.287Z,3.75
2022-12-12T14:14:20.111Z,4.80
2022-12-12T14:17:25.657Z,4.28
2022-12-12T14:20:33.866Z,4.75
2022-12-12T14:23:37.351Z,4.57
2022-12-12T14:26:50.983Z,4.47
2022-12-12T14:29:53.431Z,4.53
2022-12-12T14:33:04.272Z,5.18
2022-12-12T14:36:26.465Z,5.17
2022-12-12T14:39:49.441Z,5.90
2022-12-12T14:43:16.464Z,5.13
2022-12-12T14:46:20.454Z,5.30
2022-12-12T14:49:22.969Z,5.38
2022-12-12T14:52:27.293Z,5.20
2022-12-12T14:55:29.832Z,5.50
2022-12-12T14:58:40.387Z,5.05
2022-12-12T15:01:45.693Z,5.60
2022-12-12T15:04:51.867Z,6.07
2022-12-12T15:08:00.006Z,5.35
2022-12-12T15:11:02.494Z,6.75
2022-12-12T15:14:05.326Z,6.20
2022-12-12T15:17:13.255Z,6.20
2022-12-12T15:20:19.734Z,6.55
2022-12-12T15:23:24.333Z,5.82
2022-12-12T15:26:30.045Z,5.50
2022-12-12T15:29:33.849Z,6.50
2022-12-12T15:32:37.299Z,6.13
2022-12-12T15:35:39.846Z,4.95
2022-12-12T15:38:44.024Z,5.82
2022-12-12T15:41:46.871Z,6.85
2022-12-12T15:44:51.860Z,6.47
2022-12-12T15:47:56.442Z,6.40
2022-12-12T15:51:01.561Z,6.10
2022-12-12T15:54:06.974Z,5.88
2022-12-12T15:57:16.026Z,6.45
2022-12-12T16:00:31.798Z,6.65
2022-12-12T16:03:35.001Z,5.50
2022-12-12T16:06:39.985Z,5.90
2022-12-12T16:09:58.488Z,6.10
2022-12-12T16:13:03.454Z,7.15
2022-12-12T16:16:41.178Z,6.65
2022-12-12T16:19:47.677Z,6.63
2022-12-12T16:22:51.015Z,6.05
2022-12-12T16:25:55.526Z,5.40
2022-12-12T16:28:57.961Z,6.70
2022-12-12T16:32:00.472Z,6.55
2022-12-12T16:35:03.273Z,5.43
2022-12-12T16:38:13.662Z,6.00
2022-12-12T16:41:19.099Z,6.88
2022-12-12T16:44:21.538Z,6.35
2022-12-12T16:47:25.900Z,6.63
2022-12-12T16:50:28.468Z,6.05
2022-12-12T16:53:31.150Z,6.35
2022-12-12T16:56:35.037Z,7.43
2022-12-12T16:59:38.671Z,5.75
2022-12-12T17:02:41.543Z,6.30
2022-12-12T17:05:45.017Z,6.65
2022-12-12T17:08:47.480Z,5.43
2022-12-12T17:11:51.281Z,5.90
2022-12-12T17:14:53.733Z,6.13
2022-12-12T17:17:57.107Z,5.25
2022-12-12T17:20:59.577Z,5.90
2022-12-12T17:24:02.029Z,4.95
2022-12-12T17:27:05.890Z,6.53
2022-12-12T17:30:09.594Z,5.63
2022-12-12T17:33:17.857Z,5.72
2022-12-12T17:36:20.493Z,5.72
2022-12-12T17:39:23.372Z,5.65
2022-12-12T17:42:27.281Z,5.40
2022-12-12T17:45:29.774Z,5.97
2022-12-12T17:48:35.504Z,6.03
2022-12-12T17:51:38.186Z,5.28
2022-12-12T17:54:40.843Z,5.07
2022-12-12T17:57:44.693Z,4.65
2022-12-12T18:00:47.198Z,5.00
2022-12-12T18:03:50.343Z,5.25
2022-12-12T18:06:52.883Z,5.47
2022-12-12T18:09:55.464Z,5.28
2022-12-12T18:12:59.442Z,4.97
2022-12-12T18:16:02.000Z,4.80
2022-12-12T18:19:05.121Z,3.65
2022-12-12T18:22:07.689Z,3.88
2022-12-12T18:25:10.819Z,3.05
2022-12-12T18:28:14.682Z,3.15
